sensor_id;sensor_type;location;lat;lon;timestamp;pressure;altitude;pressure_sealevel;temperature;humidity
16461;BME280;8341;42.048;24.650;2023-04-09T00:02:24;97525.72;;;8.95;100.00
16461;BME280;8341;42.048;24.650;2023-04-09T00:04:52;97522.53;;;8.96;100.00
16461;BME280;8341;42.048;24.650;2023-04-09T00:07:19;97525.72;;;9.04;100.00
16461;BME280;8341;42.048;24.650;2023-04-09T00:09:47;97520.72;;;9.02;100.00
16461;BME280;8341;42.048;24.650;2023-04-09T00:12:14;97529.88;;;8.32;100.00
16461;BME280;8341;42.048;24.650;2023-04-09T00:14:41;97537.81;;;8.17;100.00
16461;BME280;8341;42.048;24.650;2023-04-09T00:17:08;97527.47;;;8.34;100.00
16461;BME280;8341;42.048;24.650;2023-04-09T00:19:35;97543.75;;;7.94;100.00
16461;BME280;8341;42.048;24.650;2023-04-09T00:22:02;97538.47;;;7.91;100.00
16461;BME280;8341;42.048;24.650;2023-04-09T00:24:29;97537.75;;;7.99;100.00
16461;BME280;8341;42.048;24.650;2023-04-09T00:26:58;97533.06;;;7.91;100.00
16461;BME280;8341;42.048;24.650;2023-04-09T00:29:25;97537.75;;;7.69;100.00
16461;BME280;8341;42.048;24.650;2023-04-09T00:31:52;97540.84;;;7.49;100.00
16461;BME280;8341;42.048;24.650;2023-04-09T00:34:19;97538.44;;;7.51;100.00
16461;BME280;8341;42.048;24.650;2023-04-09T00:36:46;97547.75;;;7.50;100.00
16461;BME280;8341;42.048;24.650;2023-04-09T00:39:13;97549.00;;;7.58;100.00
16461;BME280;8341;42.048;24.650;2023-04-09T00:41:39;97544.22;;;7.62;100.00
16461;BME280;8341;42.048;24.650;2023-04-09T00:44:08;97550.81;;;7.30;100.00
16461;BME280;8341;42.048;24.650;2023-04-09T00:46:35;97545.13;;;7.37;100.00
16461;BME280;8341;42.048;24.650;2023-04-09T00:49:02;97552.28;;;7.53;100.00
16461;BME280;8341;42.048;24.650;2023-04-09T00:51:29;97547.50;;;7.57;100.00
16461;BME280;8341;42.048;24.650;2023-04-09T00:53:57;97548.75;;;7.65;100.00
16461;BME280;8341;42.048;24.650;2023-04-09T00:56:25;97559.66;;;7.74;100.00
16461;BME280;8341;42.048;24.650;2023-04-09T00:58:53;97550.63;;;7.77;100.00
16461;BME280;8341;42.048;24.650;2023-04-09T01:01:21;97547.84;;;7.68;100.00
16461;BME280;8341;42.048;24.650;2023-04-09T01:03:48;97554.09;;;7.47;100.00
16461;BME280;8341;42.048;24.650;2023-04-09T01:06:21;97553.81;;;7.32;100.00
16461;BME280;8341;42.048;24.650;2023-04-09T01:08:58;97550.00;;;7.21;100.00
16461;BME280;8341;42.048;24.650;2023-04-09T01:11:33;97556.97;;;7.09;100.00
16461;BME280;8341;42.048;24.650;2023-04-09T01:14:05;97545.00;;;6.98;100.00
16461;BME280;8341;42.048;24.650;2023-04-09T01:16:36;97550.16;;;7.05;100.00
16461;BME280;8341;42.048;24.650;2023-04-09T01:19:09;97556.34;;;7.05;100.00
16461;BME280;8341;42.048;24.650;2023-04-09T01:21:42;97549.44;;;7.26;100.00
16461;BME280;8341;42.048;24.650;2023-04-09T01:24:19;97554.97;;;7.44;100.00
16461;BME280;8341;42.048;24.650;2023-04-09T01:26:55;97542.81;;;7.57;100.00
16461;BME280;8341;42.048;24.650;2023-04-09T01:29:24;97545.50;;;7.48;100.00
16461;BME280;8341;42.048;24.650;2023-04-09T01:31:54;97545.72;;;7.63;100.00
16461;BME280;8341;42.048;24.650;2023-04-09T01:34:21;97549.19;;;7.64;100.00
16461;BME280;8341;42.048;24.650;2023-04-09T01:36:52;97554.69;;;7.51;100.00
16461;BME280;8341;42.048;24.650;2023-04-09T01:39:20;97553.78;;;7.23;100.00
16461;BME280;8341;42.048;24.650;2023-04-09T01:41:48;97553.44;;;7.43;100.00
16461;BME280;8341;42.048;24.650;2023-04-09T01:44:16;97557.91;;;7.58;100.00
16461;BME280;8341;42.048;24.650;2023-04-09T01:46:45;97564.13;;;7.68;100.00
16461;BME280;8341;42.048;24.650;2023-04-09T01:49:13;97564.41;;;7.61;100.00
16461;BME280;8341;42.048;24.650;2023-04-09T01:51:41;97560.53;;;7.71;100.00
16461;BME280;8341;42.048;24.650;2023-04-09T01:54:08;97561.09;;;7.57;100.00
16461;BME280;8341;42.048;24.650;2023-04-09T01:56:40;97562.00;;;7.63;100.00
16461;BME280;8341;42.048;24.650;2023-04-09T01:59:07;97562.38;;;7.74;100.00
16461;BME280;8341;42.048;24.650;2023-04-09T02:01:38;97565.31;;;7.89;100.00
16461;BME280;8341;42.048;24.650;2023-04-09T02:04:12;97566.72;;;8.02;100.00
16461;BME280;8341;42.048;24.650;2023-04-09T02:06:46;97566.00;;;8.11;100.00
16461;BME280;8341;42.048;24.650;2023-04-09T02:09:16;97571.78;;;7.91;100.00
16461;BME280;8341;42.048;24.650;2023-04-09T02:11:45;97569.75;;;8.04;100.00
16461;BME280;8341;42.048;24.650;2023-04-09T02:14:14;97576.72;;;8.14;100.00
16461;BME280;8341;42.048;24.650;2023-04-09T02:16:42;97570.69;;;8.19;100.00
16461;BME280;8341;42.048;24.650;2023-04-09T02:19:10;97578.25;;;8.25;100.00
16461;BME280;8341;42.048;24.650;2023-04-09T02:21:37;97584.66;;;8.31;100.00
16461;BME280;8341;42.048;24.650;2023-04-09T02:24:04;97578.63;;;8.36;100.00
16461;BME280;8341;42.048;24.650;2023-04-09T02:26:31;97580.78;;;8.41;100.00
16461;BME280;8341;42.048;24.650;2023-04-09T02:28:58;97571.41;;;8.42;100.00
16461;BME280;8341;42.048;24.650;2023-04-09T02:31:25;97575.91;;;8.36;100.00
16461;BME280;8341;42.048;24.650;2023-04-09T02:33:52;97577.94;;;8.13;100.00
16461;BME280;8341;42.048;24.650;2023-04-09T02:36:21;97575.44;;;7.88;100.00
16461;BME280;8341;42.048;24.650;2023-04-09T02:38:48;97576.50;;;7.91;100.00
16461;BME280;8341;42.048;24.650;2023-04-09T02:41:15;97578.16;;;7.97;100.00
16461;BME280;8341;42.048;24.650;2023-04-09T02:43:42;97580.44;;;7.68;100.00
16461;BME280;8341;42.048;24.650;2023-04-09T02:46:09;97574.00;;;7.75;100.00
16461;BME280;8341;42.048;24.650;2023-04-09T02:48:36;97572.56;;;7.92;100.00
16461;BME280;8341;42.048;24.650;2023-04-09T02:51:04;97577.88;;;7.95;100.00
16461;BME280;8341;42.048;24.650;2023-04-09T02:53:33;97574.88;;;8.02;100.00
16461;BME280;8341;42.048;24.650;2023-04-09T02:55:59;97581.81;;;8.03;100.00
16461;BME280;8341;42.048;24.650;2023-04-09T02:58:26;97576.25;;;8.07;100.00
16461;BME280;8341;42.048;24.650;2023-04-09T03:00:53;97575.66;;;8.12;100.00
16461;BME280;8341;42.048;24.650;2023-04-09T03:03:20;97574.84;;;7.93;100.00
16461;BME280;8341;42.048;24.650;2023-04-09T03:05:47;97568.69;;;7.71;100.00
16461;BME280;8341;42.048;24.650;2023-04-09T03:08:14;97569.47;;;7.50;100.00
16461;BME280;8341;42.048;24.650;2023-04-09T03:10:43;97568.41;;;7.78;100.00
16461;BME280;8341;42.048;24.650;2023-04-09T03:13:10;97575.50;;;7.76;100.00
16461;BME280;8341;42.048;24.650;2023-04-09T03:15:37;97573.22;;;7.74;100.00
16461;BME280;8341;42.048;24.650;2023-04-09T03:18:04;97576.72;;;7.53;100.00
16461;BME280;8341;42.048;24.650;2023-04-09T03:20:31;97581.97;;;7.47;100.00
16461;BME280;8341;42.048;24.650;2023-04-09T03:22:58;97569.16;;;7.48;100.00
16461;BME280;8341;42.048;24.650;2023-04-09T03:25:25;97575.22;;;7.30;100.00
16461;BME280;8341;42.048;24.650;2023-04-09T03:27:53;97577.75;;;7.25;100.00
16461;BME280;8341;42.048;24.650;2023-04-09T03:30:20;97577.81;;;7.34;100.00
16461;BME280;8341;42.048;24.650;2023-04-09T03:32:47;97589.16;;;7.20;100.00
16461;BME280;8341;42.048;24.650;2023-04-09T03:35:14;97588.97;;;7.36;100.00
16461;BME280;8341;42.048;24.650;2023-04-09T03:37:41;97595.72;;;7.53;100.00
16461;BME280;8341;42.048;24.650;2023-04-09T03:40:09;97597.94;;;7.67;100.00
16461;BME280;8341;42.048;24.650;2023-04-09T03:42:36;97594.44;;;7.88;100.00
16461;BME280;8341;42.048;24.650;2023-04-09T03:45:06;97598.69;;;7.98;100.00
16461;BME280;8341;42.048;24.650;2023-04-09T03:47:33;97591.47;;;8.04;100.00
16461;BME280;8341;42.048;24.650;2023-04-09T03:50:00;97596.63;;;8.11;100.00
16461;BME280;8341;42.048;24.650;2023-04-09T03:52:27;97605.59;;;8.21;100.00
16461;BME280;8341;42.048;24.650;2023-04-09T03:54:54;97612.72;;;8.28;100.00
16461;BME280;8341;42.048;24.650;2023-04-09T03:57:21;97606.28;;;8.12;100.00
16461;BME280;8341;42.048;24.650;2023-04-09T03:59:48;97611.06;;;7.99;100.00
16461;BME280;8341;42.048;24.650;2023-04-09T04:02:16;97612.97;;;8.20;100.00
16461;BME280;8341;42.048;24.650;2023-04-09T04:04:44;97620.28;;;8.33;100.00
16461;BME280;8341;42.048;24.650;2023-04-09T04:07:11;97620.47;;;8.38;100.00
16461;BME280;8341;42.048;24.650;2023-04-09T04:09:38;97616.84;;;8.41;100.00
16461;BME280;8341;42.048;24.650;2023-04-09T04:12:05;97621.69;;;8.46;100.00
16461;BME280;8341;42.048;24.650;2023-04-09T04:14:32;97617.34;;;8.49;100.00
16461;BME280;8341;42.048;24.650;2023-04-09T04:17:00;97614.03;;;8.54;100.00
16461;BME280;8341;42.048;24.650;2023-04-09T04:19:29;97617.34;;;8.58;100.00
16461;BME280;8341;42.048;24.650;2023-04-09T04:21:56;97622.34;;;8.59;100.00
16461;BME280;8341;42.048;24.650;2023-04-09T04:24:23;97627.31;;;8.61;100.00
16461;BME280;8341;42.048;24.650;2023-04-09T04:26:50;97622.53;;;8.65;100.00
16461;BME280;8341;42.048;24.650;2023-04-09T04:29:17;97627.03;;;8.68;100.00
16461;BME280;8341;42.048;24.650;2023-04-09T04:31:44;97628.56;;;8.69;100.00
16461;BME280;8341;42.048;24.650;2023-04-09T04:34:11;97622.53;;;8.74;100.00
16461;BME280;8341;42.048;24.650;2023-04-09T04:36:40;97631.31;;;8.78;100.00
16461;BME280;8341;42.048;24.650;2023-04-09T04:39:07;97624.22;;;8.80;100.00
16461;BME280;8341;42.048;24.650;2023-04-09T04:41:34;97619.09;;;8.82;100.00
16461;BME280;8341;42.048;24.650;2023-04-09T04:44:01;97622.88;;;8.85;100.00
16461;BME280;8341;42.048;24.650;2023-04-09T04:46:28;97620.75;;;8.89;100.00
16461;BME280;8341;42.048;24.650;2023-04-09T04:48:55;97615.75;;;8.88;100.00
16461;BME280;8341;42.048;24.650;2023-04-09T04:51:21;97620.75;;;8.89;100.00
16461;BME280;8341;42.048;24.650;2023-04-09T04:53:50;97626.94;;;8.90;100.00
16461;BME280;8341;42.048;24.650;2023-04-09T04:56:17;97619.25;;;8.88;100.00
16461;BME280;8341;42.048;24.650;2023-04-09T04:58:44;97627.41;;;8.88;100.00
16461;BME280;8341;42.048;24.650;2023-04-09T05:01:11;97618.47;;;8.88;100.00
16461;BME280;8341;42.048;24.650;2023-04-09T05:03:38;97628.00;;;8.83;100.00
16461;BME280;8341;42.048;24.650;2023-04-09T05:06:05;97635.22;;;8.77;100.00
16461;BME280;8341;42.048;24.650;2023-04-09T05:08:33;97633.09;;;8.81;100.00
16461;BME280;8341;42.048;24.650;2023-04-09T05:11:01;97630.72;;;8.83;100.00
16461;BME280;8341;42.048;24.650;2023-04-09T05:13:28;97632.50;;;8.86;100.00
16461;BME280;8341;42.048;24.650;2023-04-09T05:15:55;97630.56;;;8.87;100.00
16461;BME280;8341;42.048;24.650;2023-04-09T05:18:22;97630.84;;;8.79;100.00
16461;BME280;8341;42.048;24.650;2023-04-09T05:20:49;97636.31;;;8.40;100.00
16461;BME280;8341;42.048;24.650;2023-04-09T05:23:16;97632.50;;;8.28;100.00
16461;BME280;8341;42.048;24.650;2023-04-09T05:25:43;97635.66;;;7.74;100.00
16461;BME280;8341;42.048;24.650;2023-04-09T05:28:12;97635.81;;;7.15;100.00
16461;BME280;8341;42.048;24.650;2023-04-09T05:30:41;97637.97;;;7.20;100.00
16461;BME280;8341;42.048;24.650;2023-04-09T05:33:11;97640.28;;;6.74;100.00
16461;BME280;8341;42.048;24.650;2023-04-09T05:35:38;97628.38;;;6.59;100.00
16461;BME280;8341;42.048;24.650;2023-04-09T05:38:05;97638.44;;;6.59;100.00
16461;BME280;8341;42.048;24.650;2023-04-09T05:40:32;97631.59;;;6.67;100.00
16461;BME280;8341;42.048;24.650;2023-04-09T05:43:00;97638.22;;;6.66;100.00
16461;BME280;8341;42.048;24.650;2023-04-09T05:45:28;97646.47;;;6.62;100.00
16461;BME280;8341;42.048;24.650;2023-04-09T05:47:55;97645.06;;;6.45;100.00
16461;BME280;8341;42.048;24.650;2023-04-09T05:50:22;97650.28;;;6.52;100.00
16461;BME280;8341;42.048;24.650;2023-04-09T05:52:49;97641.59;;;6.57;100.00
16461;BME280;8341;42.048;24.650;2023-04-09T05:55:16;97641.59;;;6.70;100.00
16461;BME280;8341;42.048;24.650;2023-04-09T05:57:44;97648.69;;;6.89;100.00
16461;BME280;8341;42.048;24.650;2023-04-09T06:00:11;97653.22;;;7.05;100.00
16461;BME280;8341;42.048;24.650;2023-04-09T06:02:41;97652.34;;;7.29;100.00
16461;BME280;8341;42.048;24.650;2023-04-09T06:05:08;97656.94;;;7.54;100.00
16461;BME280;8341;42.048;24.650;2023-04-09T06:07:35;97656.81;;;7.79;100.00
16461;BME280;8341;42.048;24.650;2023-04-09T06:10:03;97657.44;;;7.83;100.00
16461;BME280;8341;42.048;24.650;2023-04-09T06:12:30;97662.94;;;7.92;100.00
16461;BME280;8341;42.048;24.650;2023-04-09T06:14:57;97651.00;;;7.90;100.00
16461;BME280;8341;42.048;24.650;2023-04-09T06:17:24;97657.06;;;8.25;100.00
16461;BME280;8341;42.048;24.650;2023-04-09T06:19:52;97656.84;;;8.41;100.00
16461;BME280;8341;42.048;24.650;2023-04-09T06:22:19;97661.16;;;8.60;100.00
16461;BME280;8341;42.048;24.650;2023-04-09T06:24:46;97657.50;;;8.54;100.00
16461;BME280;8341;42.048;24.650;2023-04-09T06:27:13;97658.75;;;8.62;100.00
16461;BME280;8341;42.048;24.650;2023-04-09T06:29:40;97663.47;;;8.70;100.00
16461;BME280;8341;42.048;24.650;2023-04-09T06:32:07;97667.25;;;8.73;100.00
16461;BME280;8341;42.048;24.650;2023-04-09T06:34:34;97664.88;;;8.44;100.00
16461;BME280;8341;42.048;24.650;2023-04-09T06:37:02;97664.16;;;8.53;100.00
16461;BME280;8341;42.048;24.650;2023-04-09T06:39:29;97664.72;;;8.17;100.00
16461;BME280;8341;42.048;24.650;2023-04-09T06:41:57;97657.25;;;8.30;100.00
16461;BME280;8341;42.048;24.650;2023-04-09T06:44:25;97666.19;;;8.09;100.00
16461;BME280;8341;42.048;24.650;2023-04-09T06:46:52;97666.38;;;8.14;100.00
16461;BME280;8341;42.048;24.650;2023-04-09T06:49:19;97666.38;;;8.14;100.00
16461;BME280;8341;42.048;24.650;2023-04-09T06:51:46;97673.34;;;8.25;100.00
16461;BME280;8341;42.048;24.650;2023-04-09T06:54:14;97664.34;;;8.28;100.00
16461;BME280;8341;42.048;24.650;2023-04-09T06:56:41;97661.09;;;8.42;100.00
16461;BME280;8341;42.048;24.650;2023-04-09T06:59:08;97675.72;;;8.75;100.00
16461;BME280;8341;42.048;24.650;2023-04-09T07:01:36;97672.78;;;8.60;100.00
16461;BME280;8341;42.048;24.650;2023-04-09T07:04:03;97680.72;;;8.46;100.00
16461;BME280;8341;42.048;24.650;2023-04-09T07:06:30;97679.19;;;8.36;100.00
16461;BME280;8341;42.048;24.650;2023-04-09T07:08:57;97672.69;;;8.11;100.00
16461;BME280;8341;42.048;24.650;2023-04-09T07:11:26;97678.03;;;7.93;100.00
16461;BME280;8341;42.048;24.650;2023-04-09T07:13:53;97678.09;;;7.59;100.00
16461;BME280;8341;42.048;24.650;2023-04-09T07:16:21;97672.97;;;7.61;100.00
16461;BME280;8341;42.048;24.650;2023-04-09T07:18:48;97674.22;;;7.47;100.00
16461;BME280;8341;42.048;24.650;2023-04-09T07:21:15;97673.38;;;7.38;100.00
16461;BME280;8341;42.048;24.650;2023-04-09T07:23:42;97645.50;;;7.37;100.00
16461;BME280;8341;42.048;24.650;2023-04-09T07:26:10;97675.38;;;7.59;100.00
16461;BME280;8341;42.048;24.650;2023-04-09T07:28:39;97673.09;;;7.57;100.00
16461;BME280;8341;42.048;24.650;2023-04-09T07:31:06;97675.34;;;7.81;100.00
16461;BME280;8341;42.048;24.650;2023-04-09T07:33:33;97673.34;;;7.94;100.00
16461;BME280;8341;42.048;24.650;2023-04-09T07:36:00;97671.78;;;8.14;100.00
16461;BME280;8341;42.048;24.650;2023-04-09T07:38:28;97683.03;;;8.26;100.00
16461;BME280;8341;42.048;24.650;2023-04-09T07:40:55;97687.41;;;8.23;100.00
16461;BME280;8341;42.048;24.650;2023-04-09T07:43:22;97686.31;;;8.42;100.00
16461;BME280;8341;42.048;24.650;2023-04-09T07:45:51;97688.50;;;8.65;100.00
16461;BME280;8341;42.048;24.650;2023-04-09T07:48:18;97691.16;;;8.96;100.00
16461;BME280;8341;42.048;24.650;2023-04-09T07:50:45;97685.19;;;8.61;100.00
16461;BME280;8341;42.048;24.650;2023-04-09T07:53:12;97687.53;;;8.99;100.00
16461;BME280;8341;42.048;24.650;2023-04-09T07:55:40;97689.63;;;8.77;100.00
16461;BME280;8341;42.048;24.650;2023-04-09T07:58:07;97693.03;;;9.08;100.00
16461;BME280;8341;42.048;24.650;2023-04-09T08:00:34;97695.31;;;9.19;100.00
16461;BME280;8341;42.048;24.650;2023-04-09T08:03:02;97702.25;;;9.20;100.00
16461;BME280;8341;42.048;24.650;2023-04-09T08:05:29;97701.22;;;9.44;100.00
16461;BME280;8341;42.048;24.650;2023-04-09T08:07:56;97695.47;;;9.61;100.00
16461;BME280;8341;42.048;24.650;2023-04-09T08:10:23;97701.25;;;9.81;100.00
16461;BME280;8341;42.048;24.650;2023-04-09T08:12:50;97703.47;;;9.91;100.00
16461;BME280;8341;42.048;24.650;2023-04-09T08:15:17;97694.84;;;9.93;100.00
16461;BME280;8341;42.048;24.650;2023-04-09T08:17:44;97695.75;;;10.08;100.00
16461;BME280;8341;42.048;24.650;2023-04-09T08:20:13;97698.75;;;10.28;100.00
16461;BME280;8341;42.048;24.650;2023-04-09T08:22:41;97701.00;;;10.30;100.00
16461;BME280;8341;42.048;24.650;2023-04-09T08:25:08;97705.50;;;10.51;100.00
16461;BME280;8341;42.048;24.650;2023-04-09T08:27:35;97705.25;;;10.73;100.00
16461;BME280;8341;42.048;24.650;2023-04-09T08:30:02;97707.06;;;10.34;100.00
16461;BME280;8341;42.048;24.650;2023-04-09T08:32:29;97701.00;;;10.81;100.00
16461;BME280;8341;42.048;24.650;2023-04-09T08:34:56;97702.69;;;11.02;98.38
16461;BME280;8341;42.048;24.650;2023-04-09T08:37:25;97704.09;;;11.21;96.48
16461;BME280;8341;42.048;24.650;2023-04-09T08:39:52;97698.50;;;11.15;94.64
16461;BME280;8341;42.048;24.650;2023-04-09T08:42:19;97698.06;;;11.17;93.50
16461;BME280;8341;42.048;24.650;2023-04-09T08:44:49;97692.13;;;11.18;96.74
16461;BME280;8341;42.048;24.650;2023-04-09T08:47:17;97693.56;;;11.52;96.99
16461;BME280;8341;42.048;24.650;2023-04-09T08:49:45;97700.75;;;11.64;95.04
16461;BME280;8341;42.048;24.650;2023-04-09T08:52:12;97693.59;;;11.67;93.77
16461;BME280;8341;42.048;24.650;2023-04-09T08:54:42;97705.94;;;11.62;93.69
16461;BME280;8341;42.048;24.650;2023-04-09T08:57:09;97701.97;;;11.63;90.79
16461;BME280;8341;42.048;24.650;2023-04-09T08:59:36;97703.72;;;11.75;91.15
16461;BME280;8341;42.048;24.650;2023-04-09T09:02:06;97708.19;;;11.64;86.92
16461;BME280;8341;42.048;24.650;2023-04-09T09:04:43;97697.44;;;11.60;87.57
16461;BME280;8341;42.048;24.650;2023-04-09T09:07:11;97694.94;;;11.71;90.98
16461;BME280;8341;42.048;24.650;2023-04-09T09:09:51;97693.16;;;11.45;89.80
16461;BME280;8341;42.048;24.650;2023-04-09T09:12:35;97687.91;;;10.85;91.48
16461;BME280;8341;42.048;24.650;2023-04-09T09:15:04;97687.31;;;10.48;94.54
16461;BME280;8341;42.048;24.650;2023-04-09T09:17:31;97681.06;;;10.89;95.24
16461;BME280;8341;42.048;24.650;2023-04-09T09:19:58;97683.84;;;10.80;94.88
16461;BME280;8341;42.048;24.650;2023-04-09T09:22:26;97675.72;;;10.71;96.40
16461;BME280;8341;42.048;24.650;2023-04-09T09:24:55;97681.88;;;10.48;95.76
16461;BME280;8341;42.048;24.650;2023-04-09T09:27:32;97682.38;;;10.28;98.89
16461;BME280;8341;42.048;24.650;2023-04-09T09:30:01;97686.50;;;10.65;96.18
16461;BME280;8341;42.048;24.650;2023-04-09T09:32:29;97670.03;;;10.84;93.60
16461;BME280;8341;42.048;24.650;2023-04-09T09:35:04;97673.09;;;10.77;92.49
16461;BME280;8341;42.048;24.650;2023-04-09T09:37:32;97681.06;;;10.89;91.53
16461;BME280;8341;42.048;24.650;2023-04-09T09:40:01;97671.34;;;10.64;92.61
16461;BME280;8341;42.048;24.650;2023-04-09T09:42:28;97667.41;;;10.65;90.60
16461;BME280;8341;42.048;24.650;2023-04-09T09:44:57;97667.41;;;10.65;92.02
16461;BME280;8341;42.048;24.650;2023-04-09T09:47:25;97665.84;;;10.74;92.53
16461;BME280;8341;42.048;24.650;2023-04-09T09:49:53;97665.00;;;11.15;91.42
16461;BME280;8341;42.048;24.650;2023-04-09T09:52:24;97659.75;;;10.79;88.36
16461;BME280;8341;42.048;24.650;2023-04-09T09:54:52;97658.00;;;10.66;88.09
16461;BME280;8341;42.048;24.650;2023-04-09T09:57:24;97659.63;;;10.40;91.17
16461;BME280;8341;42.048;24.650;2023-04-09T09:59:55;97653.31;;;10.67;89.77
16461;BME280;8341;42.048;24.650;2023-04-09T10:02:23;97656.28;;;11.02;90.02
16461;BME280;8341;42.048;24.650;2023-04-09T10:04:59;97654.25;;;10.88;84.92
16461;BME280;8341;42.048;24.650;2023-04-09T10:07:28;97651.06;;;11.13;86.67
16461;BME280;8341;42.048;24.650;2023-04-09T10:09:57;97644.72;;;11.30;80.52
16461;BME280;8341;42.048;24.650;2023-04-09T10:12:28;97644.28;;;11.70;78.39
16461;BME280;8341;42.048;24.650;2023-04-09T10:14:56;97650.94;;;11.69;72.37
16461;BME280;8341;42.048;24.650;2023-04-09T10:17:28;97649.47;;;11.83;74.72
16461;BME280;8341;42.048;24.650;2023-04-09T10:20:03;97638.81;;;12.00;75.71
16461;BME280;8341;42.048;24.650;2023-04-09T10:22:32;97636.16;;;12.20;74.72
16461;BME280;8341;42.048;24.650;2023-04-09T10:25:01;97633.34;;;12.14;72.71
16461;BME280;8341;42.048;24.650;2023-04-09T10:27:30;97636.16;;;12.34;75.47
16461;BME280;8341;42.048;24.650;2023-04-09T10:29:57;97636.88;;;12.49;74.01
16461;BME280;8341;42.048;24.650;2023-04-09T10:32:25;97634.56;;;12.28;74.59
16461;BME280;8341;42.048;24.650;2023-04-09T10:34:56;97623.78;;;12.74;76.20
16461;BME280;8341;42.048;24.650;2023-04-09T10:37:25;97629.50;;;12.90;66.24
16461;BME280;8341;42.048;24.650;2023-04-09T10:39:52;97633.91;;;13.23;66.68
16461;BME280;8341;42.048;24.650;2023-04-09T10:42:22;97621.56;;;13.53;70.43
16461;BME280;8341;42.048;24.650;2023-04-09T10:45:05;97624.84;;;13.57;64.92
16461;BME280;8341;42.048;24.650;2023-04-09T10:47:33;97613.41;;;13.58;67.10
16461;BME280;8341;42.048;24.650;2023-04-09T10:50:14;97626.06;;;13.56;57.93
16461;BME280;8341;42.048;24.650;2023-04-09T10:52:42;97616.63;;;13.57;60.72
16461;BME280;8341;42.048;24.650;2023-04-09T10:55:09;97606.44;;;13.57;63.13
16461;BME280;8341;42.048;24.650;2023-04-09T10:57:55;97606.31;;;13.26;61.14
16461;BME280;8341;42.048;24.650;2023-04-09T11:00:24;97602.81;;;13.26;60.53
16461;BME280;8341;42.048;24.650;2023-04-09T11:03:13;97607.94;;;13.58;56.07
16461;BME280;8341;42.048;24.650;2023-04-09T11:05:46;97589.69;;;14.07;57.55
16461;BME280;8341;42.048;24.650;2023-04-09T11:08:15;97581.53;;;14.18;55.31
16461;BME280;8341;42.048;24.650;2023-04-09T11:10:44;97595.50;;;14.46;54.07
16461;BME280;8341;42.048;24.650;2023-04-09T11:13:13;97596.03;;;13.93;45.18
16461;BME280;8341;42.048;24.650;2023-04-09T11:15:43;97577.03;;;13.84;50.97
16461;BME280;8341;42.048;24.650;2023-04-09T11:18:13;97562.66;;;13.94;52.62
16461;BME280;8341;42.048;24.650;2023-04-09T11:20:40;97560.88;;;14.22;51.55
16461;BME280;8341;42.048;24.650;2023-04-09T11:23:09;97562.28;;;14.43;52.83
16461;BME280;8341;42.048;24.650;2023-04-09T11:25:37;97560.72;;;14.31;52.51
16461;BME280;8341;42.048;24.650;2023-04-09T11:28:05;97559.53;;;14.07;53.16
16461;BME280;8341;42.048;24.650;2023-04-09T11:30:33;97555.41;;;13.91;53.35
16461;BME280;8341;42.048;24.650;2023-04-09T11:33:02;97551.72;;;14.00;57.72
16461;BME280;8341;42.048;24.650;2023-04-09T11:35:29;97547.94;;;13.92;59.34
16461;BME280;8341;42.048;24.650;2023-04-09T11:37:56;97550.34;;;14.15;53.72
16461;BME280;8341;42.048;24.650;2023-04-09T11:40:25;97548.91;;;14.25;55.03
16461;BME280;8341;42.048;24.650;2023-04-09T11:42:54;97543.22;;;14.66;58.06
16461;BME280;8341;42.048;24.650;2023-04-09T11:45:23;97542.53;;;14.87;53.39
16461;BME280;8341;42.048;24.650;2023-04-09T11:47:50;97554.38;;;14.57;46.99
16461;BME280;8341;42.048;24.650;2023-04-09T11:50:19;97542.28;;;14.85;49.00
16461;BME280;8341;42.048;24.650;2023-04-09T11:52:47;97541.19;;;15.20;48.45
16461;BME280;8341;42.048;24.650;2023-04-09T11:55:22;97547.44;;;15.31;43.79
16461;BME280;8341;42.048;24.650;2023-04-09T11:57:51;97532.41;;;15.16;44.22
16461;BME280;8341;42.048;24.650;2023-04-09T12:00:18;97518.91;;;15.18;46.08
16461;BME280;8341;42.048;24.650;2023-04-09T12:02:47;97517.66;;;15.13;46.99
16461;BME280;8341;42.048;24.650;2023-04-09T12:05:22;97528.94;;;15.26;43.73
16461;BME280;8341;42.048;24.650;2023-04-09T12:07:49;97518.13;;;15.00;42.24
16461;BME280;8341;42.048;24.650;2023-04-09T12:10:17;97516.44;;;15.20;42.30
16461;BME280;8341;42.048;24.650;2023-04-09T12:12:45;97498.16;;;15.05;42.21
16461;BME280;8341;42.048;24.650;2023-04-09T12:15:22;97511.31;;;14.74;40.72
16461;BME280;8341;42.048;24.650;2023-04-09T12:17:54;97513.97;;;14.20;41.60
16461;BME280;8341;42.048;24.650;2023-04-09T12:20:30;97518.38;;;14.07;42.23
16461;BME280;8341;42.048;24.650;2023-04-09T12:22:59;97514.63;;;13.73;42.37
16461;BME280;8341;42.048;24.650;2023-04-09T12:25:28;97504.03;;;13.86;43.67
16461;BME280;8341;42.048;24.650;2023-04-09T12:27:55;97498.72;;;13.77;45.75
16461;BME280;8341;42.048;24.650;2023-04-09T12:30:23;97497.38;;;13.67;44.81
16461;BME280;8341;42.048;24.650;2023-04-09T12:32:51;97494.09;;;13.89;44.75
16461;BME280;8341;42.048;24.650;2023-04-09T12:35:19;97504.44;;;14.10;45.19
16461;BME280;8341;42.048;24.650;2023-04-09T12:37:47;97495.66;;;14.37;43.94
16461;BME280;8341;42.048;24.650;2023-04-09T12:40:14;97482.91;;;14.34;43.81
16461;BME280;8341;42.048;24.650;2023-04-09T12:42:42;97484.50;;;14.52;44.09
16461;BME280;8341;42.048;24.650;2023-04-09T12:45:14;97481.53;;;14.56;41.89
16461;BME280;8341;42.048;24.650;2023-04-09T12:47:41;97486.06;;;14.70;42.74
16461;BME280;8341;42.048;24.650;2023-04-09T12:50:10;97481.00;;;14.52;44.38
16461;BME280;8341;42.048;24.650;2023-04-09T12:52:37;97478.88;;;14.78;44.27
16461;BME280;8341;42.048;24.650;2023-04-09T12:55:07;97468.88;;;14.75;42.84
16461;BME280;8341;42.048;24.650;2023-04-09T12:57:35;97475.13;;;14.75;43.57
16461;BME280;8341;42.048;24.650;2023-04-09T13:00:03;97482.69;;;14.97;42.21
16461;BME280;8341;42.048;24.650;2023-04-09T13:02:31;97467.00;;;15.20;43.89
16461;BME280;8341;42.048;24.650;2023-04-09T13:04:58;97474.50;;;15.36;42.84
16461;BME280;8341;42.048;24.650;2023-04-09T13:07:25;97467.25;;;15.38;44.05